sensor_id;sensor_type;location;lat;lon;timestamp;P1;durP1;ratioP1;P2;durP2;ratioP2
21941;SDS011;11135;54.192;15.670;2023-04-09T00:02:53;8.80;;;3.20;;
21941;SDS011;11135;54.192;15.670;2023-04-09T00:05:59;7.82;;;3.42;;
21941;SDS011;11135;54.192;15.670;2023-04-09T00:09:10;8.30;;;3.33;;
21941;SDS011;11135;54.192;15.670;2023-04-09T00:12:28;9.10;;;3.60;;
21941;SDS011;11135;54.192;15.670;2023-04-09T00:15:49;11.43;;;3.50;;
21941;SDS011;11135;54.192;15.670;2023-04-09T00:19:00;9.20;;;3.03;;
21941;SDS011;11135;54.192;15.670;2023-04-09T00:22:11;8.50;;;3.22;;
21941;SDS011;11135;54.192;15.670;2023-04-09T00:25:20;10.75;;;3.30;;
21941;SDS011;11135;54.192;15.670;2023-04-09T00:28:41;8.50;;;3.95;;
21941;SDS011;11135;54.192;15.670;2023-04-09T00:31:55;10.25;;;3.70;;
21941;SDS011;11135;54.192;15.670;2023-04-09T00:38:25;8.70;;;2.90;;
21941;SDS011;11135;54.192;15.670;2023-04-09T00:41:37;7.78;;;3.35;;
21941;SDS011;11135;54.192;15.670;2023-04-09T00:44:52;11.40;;;3.67;;
21941;SDS011;11135;54.192;15.670;2023-04-09T00:48:08;9.63;;;3.30;;
21941;SDS011;11135;54.192;15.670;2023-04-09T00:51:23;9.45;;;3.08;;
21941;SDS011;11135;54.192;15.670;2023-04-09T00:54:32;8.57;;;3.50;;
21941;SDS011;11135;54.192;15.670;2023-04-09T00:57:47;10.02;;;3.90;;
21941;SDS011;11135;54.192;15.670;2023-04-09T01:00:54;8.80;;;3.30;;
21941;SDS011;11135;54.192;15.670;2023-04-09T01:04:27;8.40;;;3.20;;
21941;SDS011;11135;54.192;15.670;2023-04-09T01:07:45;7.97;;;3.38;;
21941;SDS011;11135;54.192;15.670;2023-04-09T01:11:02;12.90;;;3.83;;
21941;SDS011;11135;54.192;15.670;2023-04-09T01:14:13;9.27;;;4.00;;
21941;SDS011;11135;54.192;15.670;2023-04-09T01:17:30;9.05;;;3.53;;
21941;SDS011;11135;54.192;15.670;2023-04-09T01:20:55;10.00;;;3.50;;
21941;SDS011;11135;54.192;15.670;2023-04-09T01:24:09;11.93;;;3.83;;
21941;SDS011;11135;54.192;15.670;2023-04-09T01:27:24;9.90;;;3.75;;
21941;SDS011;11135;54.192;15.670;2023-04-09T01:30:44;9.35;;;3.30;;
21941;SDS011;11135;54.192;15.670;2023-04-09T01:33:56;11.27;;;3.83;;
21941;SDS011;11135;54.192;15.670;2023-04-09T01:37:04;9.80;;;4.03;;
21941;SDS011;11135;54.192;15.670;2023-04-09T01:40:13;7.50;;;3.45;;
21941;SDS011;11135;54.192;15.670;2023-04-09T01:43:27;10.05;;;3.72;;
21941;SDS011;11135;54.192;15.670;2023-04-09T01:46:42;10.30;;;3.65;;
21941;SDS011;11135;54.192;15.670;2023-04-09T01:49:55;11.55;;;4.40;;
21941;SDS011;11135;54.192;15.670;2023-04-09T01:53:07;10.18;;;4.15;;
21941;SDS011;11135;54.192;15.670;2023-04-09T01:56:19;10.75;;;4.05;;
21941;SDS011;11135;54.192;15.670;2023-04-09T01:59:33;12.73;;;3.90;;
21941;SDS011;11135;54.192;15.670;2023-04-09T02:02:45;9.80;;;4.15;;
21941;SDS011;11135;54.192;15.670;2023-04-09T02:05:55;9.05;;;4.45;;
21941;SDS011;11135;54.192;15.670;2023-04-09T02:09:06;11.70;;;4.15;;
21941;SDS011;11135;54.192;15.670;2023-04-09T02:12:13;13.23;;;4.50;;
21941;SDS011;11135;54.192;15.670;2023-04-09T02:15:23;7.75;;;4.15;;
21941;SDS011;11135;54.192;15.670;2023-04-09T02:18:32;12.82;;;4.90;;
21941;SDS011;11135;54.192;15.670;2023-04-09T02:21:38;10.27;;;4.20;;
21941;SDS011;11135;54.192;15.670;2023-04-09T02:24:45;11.15;;;4.70;;
21941;SDS011;11135;54.192;15.670;2023-04-09T02:27:53;10.02;;;4.57;;
21941;SDS011;11135;54.192;15.670;2023-04-09T02:30:59;13.05;;;5.25;;
21941;SDS011;11135;54.192;15.670;2023-04-09T02:34:11;11.77;;;5.30;;
21941;SDS011;11135;54.192;15.670;2023-04-09T02:37:17;11.60;;;5.70;;
21941;SDS011;11135;54.192;15.670;2023-04-09T02:40:22;13.18;;;5.60;;
21941;SDS011;11135;54.192;15.670;2023-04-09T02:43:31;7.82;;;4.65;;
21941;SDS011;11135;54.192;15.670;2023-04-09T02:46:37;13.05;;;5.18;;
21941;SDS011;11135;54.192;15.670;2023-04-09T02:49:50;11.15;;;4.60;;
21941;SDS011;11135;54.192;15.670;2023-04-09T02:52:58;9.68;;;4.13;;
21941;SDS011;11135;54.192;15.670;2023-04-09T02:56:04;10.32;;;4.57;;
21941;SDS011;11135;54.192;15.670;2023-04-09T02:59:09;11.52;;;4.75;;
21941;SDS011;11135;54.192;15.670;2023-04-09T03:02:17;13.55;;;5.28;;
21941;SDS011;11135;54.192;15.670;2023-04-09T03:05:28;6.80;;;3.92;;
21941;SDS011;11135;54.192;15.670;2023-04-09T03:11:43;11.73;;;4.57;;
21941;SDS011;11135;54.192;15.670;2023-04-09T03:14:50;9.35;;;4.20;;
21941;SDS011;11135;54.192;15.670;2023-04-09T03:17:56;12.68;;;4.53;;
21941;SDS011;11135;54.192;15.670;2023-04-09T03:21:13;10.48;;;4.75;;
21941;SDS011;11135;54.192;15.670;2023-04-09T03:24:20;13.77;;;5.30;;
21941;SDS011;11135;54.192;15.670;2023-04-09T03:27:26;10.07;;;4.78;;
21941;SDS011;11135;54.192;15.670;2023-04-09T03:30:32;12.02;;;4.82;;
21941;SDS011;11135;54.192;15.670;2023-04-09T03:33:38;12.00;;;4.50;;
21941;SDS011;11135;54.192;15.670;2023-04-09T03:36:47;10.52;;;4.13;;
21941;SDS011;11135;54.192;15.670;2023-04-09T03:40:04;10.85;;;5.00;;
21941;SDS011;11135;54.192;15.670;2023-04-09T03:43:12;11.68;;;4.82;;
21941;SDS011;11135;54.192;15.670;2023-04-09T03:46:24;7.15;;;4.03;;
21941;SDS011;11135;54.192;15.670;2023-04-09T03:49:33;11.43;;;4.55;;
21941;SDS011;11135;54.192;15.670;2023-04-09T03:52:43;11.40;;;4.63;;
21941;SDS011;11135;54.192;15.670;2023-04-09T03:55:49;10.95;;;4.32;;
21941;SDS011;11135;54.192;15.670;2023-04-09T03:58:57;10.40;;;5.13;;
21941;SDS011;11135;54.192;15.670;2023-04-09T04:02:03;11.15;;;4.45;;
21941;SDS011;11135;54.192;15.670;2023-04-09T04:05:11;12.75;;;4.75;;
21941;SDS011;11135;54.192;15.670;2023-04-09T04:08:23;9.77;;;4.72;;
21941;SDS011;11135;54.192;15.670;2023-04-09T04:11:34;11.18;;;5.35;;
21941;SDS011;11135;54.192;15.670;2023-04-09T04:14:39;12.90;;;4.30;;
21941;SDS011;11135;54.192;15.670;2023-04-09T04:17:45;8.45;;;4.25;;
21941;SDS011;11135;54.192;15.670;2023-04-09T04:20:51;10.60;;;4.97;;
21941;SDS011;11135;54.192;15.670;2023-04-09T04:24:00;10.20;;;4.53;;
21941;SDS011;11135;54.192;15.670;2023-04-09T04:27:16;8.13;;;4.45;;
21941;SDS011;11135;54.192;15.670;2023-04-09T04:30:21;10.23;;;4.45;;
21941;SDS011;11135;54.192;15.670;2023-04-09T04:33:27;8.27;;;4.22;;
21941;SDS011;11135;54.192;15.670;2023-04-09T04:36:34;8.88;;;4.07;;
21941;SDS011;11135;54.192;15.670;2023-04-09T04:39:51;9.93;;;4.32;;
21941;SDS011;11135;54.192;15.670;2023-04-09T04:42:58;9.95;;;4.03;;
21941;SDS011;11135;54.192;15.670;2023-04-09T04:46:06;9.98;;;4.75;;
21941;SDS011;11135;54.192;15.670;2023-04-09T04:49:12;11.23;;;4.15;;
21941;SDS011;11135;54.192;15.670;2023-04-09T04:52:17;13.95;;;5.35;;
21941;SDS011;11135;54.192;15.670;2023-04-09T04:55:27;10.27;;;4.82;;
21941;SDS011;11135;54.192;15.670;2023-04-09T04:58:32;10.60;;;4.50;;
21941;SDS011;11135;54.192;15.670;2023-04-09T05:01:40;8.80;;;3.53;;
21941;SDS011;11135;54.192;15.670;2023-04-09T05:04:45;8.55;;;3.55;;
21941;SDS011;11135;54.192;15.670;2023-04-09T05:07:53;12.63;;;4.50;;
21941;SDS011;11135;54.192;15.670;2023-04-09T05:11:09;11.10;;;4.75;;
21941;SDS011;11135;54.192;15.670;2023-04-09T05:14:17;10.55;;;4.07;;
21941;SDS011;11135;54.192;15.670;2023-04-09T05:17:27;11.35;;;4.40;;
21941;SDS011;11135;54.192;15.670;2023-04-09T05:20:34;7.43;;;4.20;;
21941;SDS011;11135;54.192;15.670;2023-04-09T05:23:39;16.05;;;5.53;;
21941;SDS011;11135;54.192;15.670;2023-04-09T05:26:50;10.35;;;4.15;;
21941;SDS011;11135;54.192;15.670;2023-04-09T05:29:57;11.40;;;4.32;;
21941;SDS011;11135;54.192;15.670;2023-04-09T05:33:07;10.88;;;4.32;;
21941;SDS011;11135;54.192;15.670;2023-04-09T05:36:20;9.18;;;4.22;;
21941;SDS011;11135;54.192;15.670;2023-04-09T05:39:27;9.18;;;4.47;;
21941;SDS011;11135;54.192;15.670;2023-04-09T05:42:37;11.75;;;3.88;;
21941;SDS011;11135;54.192;15.670;2023-04-09T05:45:46;7.78;;;3.40;;
21941;SDS011;11135;54.192;15.670;2023-04-09T05:48:54;8.27;;;3.75;;
21941;SDS011;11135;54.192;15.670;2023-04-09T05:52:00;10.00;;;3.95;;
21941;SDS011;11135;54.192;15.670;2023-04-09T05:55:06;7.32;;;4.25;;
21941;SDS011;11135;54.192;15.670;2023-04-09T05:58:17;10.63;;;3.65;;
21941;SDS011;11135;54.192;15.670;2023-04-09T06:01:22;10.38;;;3.50;;
21941;SDS011;11135;54.192;15.670;2023-04-09T06:07:51;6.60;;;2.85;;
21941;SDS011;11135;54.192;15.670;2023-04-09T06:11:00;8.88;;;3.10;;
21941;SDS011;11135;54.192;15.670;2023-04-09T06:14:15;6.93;;;3.05;;
21941;SDS011;11135;54.192;15.670;2023-04-09T06:18:04;7.18;;;3.47;;
21941;SDS011;11135;54.192;15.670;2023-04-09T06:21:26;8.05;;;3.83;;
21941;SDS011;11135;54.192;15.670;2023-04-09T06:24:32;5.65;;;2.50;;
21941;SDS011;11135;54.192;15.670;2023-04-09T06:27:41;4.88;;;2.33;;
21941;SDS011;11135;54.192;15.670;2023-04-09T06:30:55;9.85;;;3.22;;
21941;SDS011;11135;54.192;15.670;2023-04-09T06:34:06;8.27;;;3.13;;
21941;SDS011;11135;54.192;15.670;2023-04-09T06:37:13;7.30;;;2.88;;
21941;SDS011;11135;54.192;15.670;2023-04-09T06:40:18;7.50;;;2.65;;
21941;SDS011;11135;54.192;15.670;2023-04-09T06:43:25;9.13;;;3.15;;
21941;SDS011;11135;54.192;15.670;2023-04-09T06:46:37;8.82;;;2.63;;
21941;SDS011;11135;54.192;15.670;2023-04-09T06:49:44;9.07;;;3.10;;
21941;SDS011;11135;54.192;15.670;2023-04-09T06:52:54;4.00;;;2.05;;
21941;SDS011;11135;54.192;15.670;2023-04-09T06:56:02;7.68;;;2.30;;
21941;SDS011;11135;54.192;15.670;2023-04-09T06:59:09;7.20;;;2.15;;
21941;SDS011;11135;54.192;15.670;2023-04-09T07:02:33;7.70;;;2.38;;
21941;SDS011;11135;54.192;15.670;2023-04-09T07:05:40;7.15;;;2.08;;
21941;SDS011;11135;54.192;15.670;2023-04-09T07:08:55;6.43;;;2.50;;
21941;SDS011;11135;54.192;15.670;2023-04-09T07:12:09;4.47;;;1.95;;
21941;SDS011;11135;54.192;15.670;2023-04-09T07:15:17;5.32;;;1.90;;
21941;SDS011;11135;54.192;15.670;2023-04-09T07:18:27;8.05;;;3.03;;
21941;SDS011;11135;54.192;15.670;2023-04-09T07:21:35;6.63;;;2.53;;
21941;SDS011;11135;54.192;15.670;2023-04-09T07:24:41;3.90;;;2.42;;
21941;SDS011;11135;54.192;15.670;2023-04-09T07:27:48;4.97;;;2.00;;
21941;SDS011;11135;54.192;15.670;2023-04-09T07:30:56;4.63;;;2.00;;
21941;SDS011;11135;54.192;15.670;2023-04-09T07:34:07;7.35;;;2.13;;
21941;SDS011;11135;54.192;15.670;2023-04-09T07:37:17;5.70;;;1.90;;
21941;SDS011;11135;54.192;15.670;2023-04-09T07:40:25;6.13;;;1.98;;
21941;SDS011;11135;54.192;15.670;2023-04-09T07:43:30;7.72;;;2.10;;
21941;SDS011;11135;54.192;15.670;2023-04-09T07:46:36;8.30;;;2.72;;
21941;SDS011;11135;54.192;15.670;2023-04-09T07:49:46;3.97;;;2.10;;
21941;SDS011;11135;54.192;15.670;2023-04-09T07:52:52;6.15;;;2.00;;
21941;SDS011;11135;54.192;15.670;2023-04-09T07:56:17;5.63;;;1.65;;
21941;SDS011;11135;54.192;15.670;2023-04-09T07:59:23;4.25;;;1.73;;
21941;SDS011;11135;54.192;15.670;2023-04-09T08:02:34;5.53;;;1.90;;
21941;SDS011;11135;54.192;15.670;2023-04-09T08:05:47;4.07;;;2.05;;
21941;SDS011;11135;54.192;15.670;2023-04-09T08:08:55;6.60;;;1.73;;
21941;SDS011;11135;54.192;15.670;2023-04-09T08:12:03;4.95;;;2.28;;
21941;SDS011;11135;54.192;15.670;2023-04-09T08:15:11;5.20;;;1.80;;
21941;SDS011;11135;54.192;15.670;2023-04-09T08:18:21;5.32;;;1.60;;
21941;SDS011;11135;54.192;15.670;2023-04-09T08:21:36;5.03;;;2.00;;
21941;SDS011;11135;54.192;15.670;2023-04-09T08:24:44;5.50;;;2.00;;
21941;SDS011;11135;54.192;15.670;2023-04-09T08:27:58;4.65;;;1.83;;
21941;SDS011;11135;54.192;15.670;2023-04-09T08:31:07;4.95;;;1.80;;
21941;SDS011;11135;54.192;15.670;2023-04-09T08:34:14;4.35;;;2.22;;
21941;SDS011;11135;54.192;15.670;2023-04-09T08:37:27;5.35;;;2.13;;
21941;SDS011;11135;54.192;15.670;2023-04-09T08:40:37;4.10;;;1.85;;
21941;SDS011;11135;54.192;15.670;2023-04-09T08:43:43;4.38;;;2.25;;
21941;SDS011;11135;54.192;15.670;2023-04-09T08:47:06;5.15;;;1.88;;
21941;SDS011;11135;54.192;15.670;2023-04-09T08:50:16;4.68;;;1.70;;
21941;SDS011;11135;54.192;15.670;2023-04-09T08:53:26;5.70;;;2.00;;
21941;SDS011;11135;54.192;15.670;2023-04-09T08:56:34;5.30;;;1.98;;
21941;SDS011;11135;54.192;15.670;2023-04-09T08:59:47;4.10;;;1.80;;
21941;SDS011;11135;54.192;15.670;2023-04-09T09:03:02;6.32;;;1.65;;
21941;SDS011;11135;54.192;15.670;2023-04-09T09:06:11;4.57;;;1.40;;
21941;SDS011;11135;54.192;15.670;2023-04-09T09:09:27;2.33;;;1.35;;
21941;SDS011;11135;54.192;15.670;2023-04-09T09:12:37;7.18;;;2.03;;
21941;SDS011;11135;54.192;15.670;2023-04-09T09:15:43;4.03;;;1.90;;
21941;SDS011;11135;54.192;15.670;2023-04-09T09:18:53;6.43;;;2.30;;
21941;SDS011;11135;54.192;15.670;2023-04-09T09:22:02;5.80;;;2.10;;
21941;SDS011;11135;54.192;15.670;2023-04-09T09:25:13;4.05;;;1.60;;
21941;SDS011;11135;54.192;15.670;2023-04-09T09:28:19;5.60;;;2.00;;
21941;SDS011;11135;54.192;15.670;2023-04-09T09:31:25;5.80;;;2.08;;
21941;SDS011;11135;54.192;15.670;2023-04-09T09:34:34;4.43;;;1.80;;
21941;SDS011;11135;54.192;15.670;2023-04-09T09:37:39;3.80;;;1.67;;
21941;SDS011;11135;54.192;15.670;2023-04-09T09:40:50;2.58;;;1.55;;
21941;SDS011;11135;54.192;15.670;2023-04-09T09:43:55;4.50;;;1.80;;
21941;SDS011;11135;54.192;15.670;2023-04-09T09:47:04;4.28;;;2.00;;
21941;SDS011;11135;54.192;15.670;2023-04-09T09:50:14;7.03;;;1.65;;
21941;SDS011;11135;54.192;15.670;2023-04-09T09:53:27;5.07;;;1.85;;
21941;SDS011;11135;54.192;15.670;2023-04-09T09:56:43;5.57;;;2.10;;
21941;SDS011;11135;54.192;15.670;2023-04-09T10:00:03;8.52;;;2.10;;
21941;SDS011;11135;54.192;15.670;2023-04-09T10:03:13;5.75;;;1.90;;
21941;SDS011;11135;54.192;15.670;2023-04-09T10:06:24;3.80;;;1.60;;
21941;SDS011;11135;54.192;15.670;2023-04-09T10:09:34;5.07;;;1.98;;
21941;SDS011;11135;54.192;15.670;2023-04-09T10:12:45;3.00;;;1.63;;
21941;SDS011;11135;54.192;15.670;2023-04-09T10:15:57;4.57;;;1.67;;
21941;SDS011;11135;54.192;15.670;2023-04-09T10:19:04;3.45;;;1.40;;
21941;SDS011;11135;54.192;15.670;2023-04-09T10:22:17;3.70;;;1.70;;
21941;SDS011;11135;54.192;15.670;2023-04-09T10:25:26;7.43;;;1.90;;
21941;SDS011;11135;54.192;15.670;2023-04-09T10:28:36;3.50;;;1.55;;
21941;SDS011;11135;54.192;15.670;2023-04-09T10:31:52;5.70;;;1.75;;
21941;SDS011;11135;54.192;15.670;2023-04-09T10:34:58;3.90;;;1.90;;
21941;SDS011;11135;54.192;15.670;2023-04-09T10:38:08;3.35;;;1.40;;
21941;SDS011;11135;54.192;15.670;2023-04-09T10:41:21;4.22;;;1.80;;
21941;SDS011;11135;54.192;15.670;2023-04-09T10:44:30;4.65;;;1.42;;
21941;SDS011;11135;54.192;15.670;2023-04-09T10:47:38;5.37;;;1.73;;
21941;SDS011;11135;54.192;15.670;2023-04-09T10:50:45;6.00;;;1.73;;
21941;SDS011;11135;54.192;15.670;2023-04-09T10:53:55;5.57;;;2.05;;
21941;SDS011;11135;54.192;15.670;2023-04-09T10:57:13;4.30;;;1.70;;
21941;SDS011;11135;54.192;15.670;2023-04-09T11:00:25;3.80;;;1.80;;
21941;SDS011;11135;54.192;15.670;2023-04-09T11:03:30;3.95;;;2.20;;
21941;SDS011;11135;54.192;15.670;2023-04-09T11:06:38;3.75;;;1.77;;
21941;SDS011;11135;54.192;15.670;2023-04-09T11:09:44;5.22;;;2.80;;
21941;SDS011;11135;54.192;15.670;2023-04-09T11:13:00;2.92;;;1.30;;
21941;SDS011;11135;54.192;15.670;2023-04-09T11:16:10;3.72;;;1.67;;
21941;SDS011;11135;54.192;15.670;2023-04-09T11:19:25;3.60;;;1.52;;
21941;SDS011;11135;54.192;15.670;2023-04-09T11:22:32;3.70;;;1.70;;
21941;SDS011;11135;54.192;15.670;2023-04-09T11:25:38;2.90;;;1.48;;
21941;SDS011;11135;54.192;15.670;2023-04-09T11:29:00;2.47;;;1.40;;
21941;SDS011;11135;54.192;15.670;2023-04-09T11:32:12;3.20;;;1.27;;
21941;SDS011;11135;54.192;15.670;2023-04-09T11:35:21;6.10;;;1.58;;
21941;SDS011;11135;54.192;15.670;2023-04-09T11:38:30;3.70;;;1.38;;
21941;SDS011;11135;54.192;15.670;2023-04-09T11:41:37;3.88;;;1.42;;
21941;SDS011;11135;54.192;15.670;2023-04-09T11:44:47;1.75;;;1.20;;
21941;SDS011;11135;54.192;15.670;2023-04-09T11:47:58;4.18;;;1.40;;
21941;SDS011;11135;54.192;15.670;2023-04-09T11:51:08;4.13;;;1.50;;
21941;SDS011;11135;54.192;15.670;2023-04-09T11:54:13;5.32;;;1.70;;
21941;SDS011;11135;54.192;15.670;2023-04-09T11:57:20;4.03;;;1.95;;
21941;SDS011;11135;54.192;15.670;2023-04-09T12:00:29;4.25;;;1.25;;
21941;SDS011;11135;54.192;15.670;2023-04-09T12:03:40;4.63;;;1.45;;
21941;SDS011;11135;54.192;15.670;2023-04-09T12:06:46;3.05;;;1.40;;
21941;SDS011;11135;54.192;15.670;2023-04-09T12:10:01;5.03;;;1.65;;
21941;SDS011;11135;54.192;15.670;2023-04-09T12:13:09;4.35;;;1.23;;
21941;SDS011;11135;54.192;15.670;2023-04-09T12:16:18;5.43;;;1.75;;
21941;SDS011;11135;54.192;15.670;2023-04-09T12:19:27;3.50;;;1.50;;
21941;SDS011;11135;54.192;15.670;2023-04-09T12:22:34;2.30;;;1.40;;
21941;SDS011;11135;54.192;15.670;2023-04-09T12:25:42;4.88;;;1.45;;
21941;SDS011;11135;54.192;15.670;2023-04-09T12:28:51;3.55;;;1.48;;
21941;SDS011;11135;54.192;15.670;2023-04-09T12:31:58;2.38;;;1.30;;
21941;SDS011;11135;54.192;15.670;2023-04-09T12:35:08;4.40;;;1.55;;
21941;SDS011;11135;54.192;15.670;2023-04-09T12:38:19;3.35;;;1.38;;
21941;SDS011;11135;54.192;15.670;2023-04-09T12:41:28;3.17;;;1.40;;
21941;SDS011;11135;54.192;15.670;2023-04-09T12:44:34;5.50;;;1.63;;
21941;SDS011;11135;54.192;15.670;2023-04-09T12:47:44;4.18;;;1.77;;
21941;SDS011;11135;54.192;15.670;2023-04-09T12:50:54;4.28;;;1.60;;
21941;SDS011;11135;54.192;15.670;2023-04-09T12:54:02;3.45;;;1.23;;
21941;SDS011;11135;54.192;15.670;2023-04-09T12:57:09;4.82;;;1.40;;
21941;SDS011;11135;54.192;15.670;2023-04-09T13:00:17;5.00;;;1.55;;
21941;SDS011;11135;54.192;15.670;2023-04-09T13:03:26;5.25;;;1.38;;
21941;SDS011;11135;54.192;15.670;2023-04-09T13:06:36;2.63;;;1.60;;
21941;SDS011;11135;54.192;15.670;2023-04-09T13:09:45;4.88;;;1.33;;
21941;SDS011;11135;54.192;15.670;2023-04-09T13:12:54;3.30;;;1.60;;
21941;SDS011;11135;54.192;15.670;2023-04-09T13:16:01;4.18;;;1.60;;
21941;SDS011;11135;54.192;15.670;2023-04-09T13:19:12;1.77;;;1.20;;
21941;SDS011;11135;54.192;15.670;2023-04-09T13:22:26;3.40;;;1.25;;
21941;SDS011;11135;54.192;15.670;2023-04-09T13:25:33;4.07;;;1.50;;
21941;SDS011;11135;54.192;15.670;2023-04-09T13:28:39;4.57;;;1.60;;
21941;SDS011;11135;54.192;15.670;2023-04-09T13:31:50;4.50;;;1.60;;
21941;SDS011;11135;54.192;15.670;2023-04-09T13:35:09;4.57;;;1.75;;
21941;SDS011;11135;54.192;15.670;2023-04-09T13:38:19;4.97;;;1.42;;
21941;SDS011;11135;54.192;15.670;2023-04-09T13:41:25;5.03;;;1.38;;
21941;SDS011;11135;54.192;15.670;2023-04-09T13:44:33;3.75;;;1.30;;
21941;SDS011;11135;54.192;15.670;2023-04-09T13:47:41;3.90;;;1.48;;
21941;SDS011;11135;54.192;15.670;2023-04-09T13:50:48;5.40;;;1.42;;
21941;SDS011;11135;54.192;15.670;2023-04-09T13:53:56;5.15;;;2.17;;
21941;SDS011;11135;54.192;15.670;2023-04-09T13:57:07;3.75;;;1.90;;
21941;SDS011;11135;54.192;15.670;2023-04-09T14:00:18;2.35;;;1.40;;
21941;SDS011;11135;54.192;15.670;2023-04-09T14:03:25;3.97;;;1.77;;
21941;SDS011;11135;54.192;15.670;2023-04-09T14:06:34;6.90;;;1.63;;
21941;SDS011;11135;54.192;15.670;2023-04-09T14:09:44;4.60;;;1.73;;
21941;SDS011;11135;54.192;15.670;2023-04-09T14:12:49;4.22;;;1.75;;
21941;SDS011;11135;54.192;15.670;2023-04-09T14:15:59;4.32;;;1.52;;
21941;SDS011;11135;54.192;15.670;2023-04-09T14:19:09;6.10;;;1.58;;
21941;SDS011;11135;54.192;15.670;2023-04-09T14:22:17;4.72;;;1.60;;
21941;SDS011;11135;54.192;15.670;2023-04-09T14:25:27;4.25;;;1.55;;
21941;SDS011;11135;54.192;15.670;2023-04-09T14:28:37;3.30;;;1.40;;
21941;SDS011;11135;54.192;15.670;2023-04-09T14:31:53;4.72;;;1.77;;
21941;SDS011;11135;54.192;15.670;2023-04-09T14:34:59;2.47;;;1.40;;
21941;SDS011;11135;54.192;15.670;2023-04-09T14:38:07;5.53;;;1.60;;
21941;SDS011;11135;54.192;15.670;2023-04-09T14:41:21;6.65;;;1.42;;
21941;SDS011;11135;54.192;15.670;2023-04-09T14:44:26;3.38;;;1.40;;
21941;SDS011;11135;54.192;15.670;2023-04-09T14:47:36;5.00;;;1.40;;
21941;SDS011;11135;54.192;15.670;2023-04-09T14:50:43;5.32;;;1.60;;
21941;SDS011;11135;54.192;15.670;2023-04-09T14:53:53;4.00;;;1.75;;
21941;SDS011;11135;54.192;15.670;2023-04-09T14:57:01;4.90;;;1.45;;
21941;SDS011;11135;54.192;15.670;2023-04-09T15:00:09;5.75;;;2.22;;
21941;SDS011;11135;54.192;15.670;2023-04-09T15:03:16;6.03;;;1.60;;
21941;SDS011;11135;54.192;15.670;2023-04-09T15:06:22;2.72;;;1.25;;
21941;SDS011;11135;54.192;15.670;2023-04-09T15:09:30;5.72;;;1.90;;
21941;SDS011;11135;54.192;15.670;2023-04-09T15:16:01;3.53;;;1.52;;
21941;SDS011;11135;54.192;15.670;2023-04-09T15:19:13;4.72;;;1.35;;
21941;SDS011;11135;54.192;15.670;2023-04-09T15:22:21;5.28;;;2.03;;
21941;SDS011;11135;54.192;15.670;2023-04-09T15:28:38;2.72;;;1.42;;
21941;SDS011;11135;54.192;15.670;2023-04-09T15:31:53;4.67;;;1.60;;
21941;SDS011;11135;54.192;15.670;2023-04-09T15:35:03;3.97;;;1.50;;
21941;SDS011;11135;54.192;15.670;2023-04-09T15:38:09;4.22;;;1.67;;
21941;SDS011;11135;54.192;15.670;2023-04-09T15:41:16;4.05;;;1.58;;
21941;SDS011;11135;54.192;15.670;2023-04-09T15:44:28;4.47;;;1.30;;
21941;SDS011;11135;54.192;15.670;2023-04-09T15:47:39;7.00;;;1.70;;
21941;SDS011;11135;54.192;15.670;2023-04-09T15:50:45;3.08;;;1.27;;
21941;SDS011;11135;54.192;15.670;2023-04-09T15:53:53;5.63;;;1.42;;
21941;SDS011;11135;54.192;15.670;2023-04-09T15:56:59;3.13;;;1.50;;
21941;SDS011;11135;54.192;15.670;2023-04-09T16:00:06;6.03;;;1.40;;
21941;SDS011;11135;54.192;15.670;2023-04-09T16:03:17;6.68;;;1.65;;
21941;SDS011;11135;54.192;15.670;2023-04-09T16:06:26;6.85;;;1.98;;
21941;SDS011;11135;54.192;15.670;2023-04-09T16:09:34;3.70;;;1.25;;
21941;SDS011;11135;54.192;15.670;2023-04-09T16:12:41;3.42;;;1.40;;
21941;SDS011;11135;54.192;15.670;2023-04-09T16:15:48;4.18;;;1.55;;
21941;SDS011;11135;54.192;15.670;2023-04-09T16:19:03;4.18;;;1.40;;
21941;SDS011;11135;54.192;15.670;2023-04-09T16:22:09;4.93;;;1.50;;
21941;SDS011;11135;54.192;15.670;2023-04-09T16:25:15;3.38;;;1.70;;
21941;SDS011;11135;54.192;15.670;2023-04-09T16:28:24;2.78;;;1.27;;
21941;SDS011;11135;54.192;15.670;2023-04-09T16:31:30;6.15;;;1.45;;
21941;SDS011;11135;54.192;15.670;2023-04-09T16:34:44;4.65;;;1.60;;
21941;SDS011;11135;54.192;15.670;2023-04-09T16:37:56;4.38;;;1.65;;
21941;SDS011;11135;54.192;15.670;2023-04-09T16:41:03;4.93;;;1.50;;
21941;SDS011;11135;54.192;15.670;2023-04-09T16:44:17;5.20;;;1.60;;
21941;SDS011;11135;54.192;15.670;2023-04-09T16:47:26;4.72;;;1.30;;
21941;SDS011;11135;54.192;15.670;2023-04-09T16:50:56;2.47;;;1.27;;
21941;SDS011;11135;54.192;15.670;2023-04-09T16:54:11;3.97;;;1.30;;
21941;SDS011;11135;54.192;15.670;2023-04-09T16:57:18;3.63;;;1.40;;
21941;SDS011;11135;54.192;15.670;2023-04-09T17:00:27;4.70;;;1.67;;
21941;SDS011;11135;54.192;15.670;2023-04-09T17:03:34;6.45;;;1.90;;
21941;SDS011;11135;54.192;15.670;2023-04-09T17:06:49;6.63;;;1.98;;
21941;SDS011;11135;54.192;15.670;2023-04-09T17:16:42;5.07;;;1.60;;
21941;SDS011;11135;54.192;15.670;2023-04-09T17:19:52;4.28;;;1.60;;
21941;SDS011;11135;54.192;15.670;2023-04-09T17:26:20;4.65;;;1.60;;
21941;SDS011;11135;54.192;15.670;2023-04-09T17:29:31;4.78;;;1.65;;
21941;SDS011;11135;54.192;15.670;2023-04-09T17:32:48;9.10;;;1.95;;
21941;SDS011;11135;54.192;15.670;2023-04-09T17:36:02;6.28;;;1.70;;
21941;SDS011;11135;54.192;15.670;2023-04-09T17:39:10;6.65;;;2.40;;
21941;SDS011;11135;54.192;15.670;2023-04-09T17:42:20;5.80;;;1.98;;
21941;SDS011;11135;54.192;15.670;2023-04-09T17:45:34;5.68;;;1.90;;
21941;SDS011;11135;54.192;15.670;2023-04-09T17:48:57;6.32;;;1.70;;
21941;SDS011;11135;54.192;15.670;2023-04-09T17:52:06;5.65;;;1.70;;
21941;SDS011;11135;54.192;15.670;2023-04-09T17:55:21;8.43;;;1.80;;
21941;SDS011;11135;54.192;15.670;2023-04-09T17:58:35;7.03;;;1.77;;
21941;SDS011;11135;54.192;15.670;2023-04-09T18:01:46;4.18;;;1.63;;
21941;SDS011;11135;54.192;15.670;2023-04-09T18:05:02;6.00;;;2.00;;
21941;SDS011;11135;54.192;15.670;2023-04-09T18:08:08;7.40;;;1.70;;
21941;SDS011;11135;54.192;15.670;2023-04-09T18:11:18;5.35;;;1.60;;
21941;SDS011;11135;54.192;15.670;2023-04-09T18:14:37;6.38;;;2.33;;
21941;SDS011;11135;54.192;15.670;2023-04-09T18:17:44;9.70;;;1.90;;
21941;SDS011;11135;54.192;15.670;2023-04-09T18:20:56;5.25;;;2.00;;
21941;SDS011;11135;54.192;15.670;2023-04-09T18:24:02;2.90;;;1.45;;
21941;SDS011;11135;54.192;15.670;2023-04-09T18:27:11;6.55;;;1.75;;
21941;SDS011;11135;54.192;15.670;2023-04-09T18:30:20;7.55;;;2.38;;
21941;SDS011;11135;54.192;15.670;2023-04-09T18:33:28;5.75;;;2.22;;
21941;SDS011;11135;54.192;15.670;2023-04-09T18:36:37;5.05;;;1.92;;
21941;SDS011;11135;54.192;15.670;2023-04-09T18:39:48;3.63;;;1.98;;
21941;SDS011;11135;54.192;15.670;2023-04-09T18:43:03;7.63;;;2.50;;
21941;SDS011;11135;54.192;15.670;2023-04-09T18:46:13;4.50;;;1.83;;
21941;SDS011;11135;54.192;15.670;2023-04-09T18:49:21;5.90;;;2.03;;
21941;SDS011;11135;54.192;15.670;2023-04-09T18:52:29;8.57;;;2.40;;
21941;SDS011;11135;54.192;15.670;2023-04-09T18:55:36;5.28;;;2.47;;
21941;SDS011;11135;54.192;15.670;2023-04-09T18:58:45;5.90;;;1.80;;
21941;SDS011;11135;54.192;15.670;2023-04-09T19:01:57;7.07;;;2.28;;
21941;SDS011;11135;54.192;15.670;2023-04-09T19:05:09;7.15;;;2.30;;
21941;SDS011;11135;54.192;15.670;2023-04-09T19:08:21;4.68;;;1.95;;
21941;SDS011;11135;54.192;15.670;2023-04-09T19:11:32;3.42;;;1.70;;